Archival Weather

Republic

Farmingdale, New York (KFRG)

Report from: Saturday, February 24, 2024 8:45 AM EST
Current time: Friday, June 21, 2024 3:40 AM EDT

Current weather – Weather history – Daily summaries
Weather forecast

Temperature4.4°C (39.9°F)
Wind chill0.3°C (32.5°F)
Dew point-0.6°C (30.9°F)
Winds 11 kts (5.7 m/s, 12.7 mph) North-Northwest (330°)
Visibility10 mi. (16.1 km)
Clouds Ceiling: Overcast 2,900 ft. (884 m)
Altimeter29.63 in.Hg (1003 mB)
Relative humidity70 %
Density altitude-856 ft. (-261 m)
Remarks Automated weather observing station without precipitation discriminator
Flight conditions Marginal Visual Meteorological Conditions
Raw dataKFRG 241345Z 33011KT 10SM OVC029 04/M01 A2963 RMK AO1 T00441006
An error has occurred. This application may no longer respond until reloaded. Reload 🗙